Time,TemperatureF,DewpointF,PressureIn,WindDirection,WindDirectionDegrees,WindSpeedMPH,WindSpeedGustMPH,Humidity,HourlyPrecipIn,Conditions,Clouds,dailyrainin,SoftwareType,DateUTC
2013-02-27 00:12:00,42.0,42.0,29.69,SW,226,1.0,5.0,98,0.00,,,0.00,weatherlink.com 1.10,2013-02-27 05:12:00,
2013-02-27 00:27:00,41.9,41.0,29.69,WNW,290,1.0,10.0,98,0.00,,,0.00,weatherlink.com 1.10,2013-02-27 05:27:00,
2013-02-27 00:42:00,41.6,41.0,29.69,SW,233,2.0,6.0,98,0.00,,,0.00,weatherlink.com 1.10,2013-02-27 05:42:00,
2013-02-27 00:57:00,41.6,41.0,29.68,SE,131,2.0,5.0,98,0.00,,,0.00,weatherlink.com 1.10,2013-02-27 05:57:00,
2013-02-27 01:12:00,41.5,41.0,29.68,SSE,155,2.0,5.0,98,0.00,,,0.00,weatherlink.com 1.10,2013-02-27 06:12:00,
2013-02-27 01:27:00,41.2,41.0,29.68,SE,126,1.0,4.0,98,0.00,,,0.00,weatherlink.com 1.10,2013-02-27 06:27:00,
2013-02-27 01:42:00,41.0,40.0,29.68,SW,215,1.0,6.0,97,0.00,,,0.00,weatherlink.com 1.10,2013-02-27 06:42:00,
2013-02-27 01:57:00,41.0,40.0,29.67,West,266,2.0,8.0,97,0.00,,,0.00,weatherlink.com 1.10,2013-02-27 06:57:00,
2013-02-27 02:12:00,41.0,40.0,29.68,SE,126,5.0,8.0,96,0.00,,,0.00,weatherlink.com 1.10,2013-02-27 07:12:00,
2013-02-27 02:27:00,40.8,40.0,29.67,SSW,205,1.0,5.0,96,0.00,,,0.00,weatherlink.com 1.10,2013-02-27 07:27:00,
2013-02-27 02:57:00,40.6,39.0,29.67,SW,217,4.0,9.0,95,0.00,,,0.00,weatherlink.com 1.10,2013-02-27 07:57:00,
2013-02-27 03:12:00,40.4,39.0,29.68,WSW,244,4.0,7.0,94,0.00,,,0.00,weatherlink.com 1.10,2013-02-27 08:12:00,
2013-02-27 03:27:00,40.3,39.0,29.68,East,99,2.0,9.0,94,0.00,,,0.00,weatherlink.com 1.10,2013-02-27 08:27:00,
2013-02-27 03:42:00,40.0,39.0,29.68,SW,220,2.0,7.0,94,0.00,,,0.00,weatherlink.com 1.10,2013-02-27 08:42:00,
2013-02-27 03:57:00,39.7,38.0,29.68,WSW,241,1.0,5.0,94,0.00,,,0.00,weatherlink.com 1.10,2013-02-27 08:57:00,
2013-02-27 04:12:00,39.6,38.0,29.69,SW,225,4.0,5.0,94,0.00,,,0.00,weatherlink.com 1.10,2013-02-27 09:12:00,
2013-02-27 04:27:00,39.4,38.0,29.70,WSW,240,3.0,4.0,94,0.00,,,0.00,weatherlink.com 1.10,2013-02-27 09:27:00,
2013-02-27 04:42:00,39.1,38.0,29.70,WNW,303,0.0,2.0,94,0.00,,,0.00,weatherlink.com 1.10,2013-02-27 09:42:00,
2013-02-27 04:57:00,38.8,37.0,29.71,West,277,2.0,3.0,94,0.00,,,0.00,weatherlink.com 1.10,2013-02-27 09:57:00,
2013-02-27 05:12:00,38.7,37.0,29.71,WSW,257,1.0,5.0,94,0.00,,,0.00,weatherlink.com 1.10,2013-02-27 10:12:00,
2013-02-27 05:27:00,38.5,37.0,29.72,SW,235,0.0,2.0,94,0.00,,,0.00,weatherlink.com 1.10,2013-02-27 10:27:00,
2013-02-27 05:42:00,38.1,37.0,29.72,West,277,0.0,2.0,94,0.00,,,0.00,weatherlink.com 1.10,2013-02-27 10:42:00,
2013-02-27 05:57:00,37.7,36.0,29.73,SW,231,0.0,2.0,95,0.00,,,0.00,weatherlink.com 1.10,2013-02-27 10:57:00,
2013-02-27 06:12:00,37.3,36.0,29.74,SW,231,1.0,2.0,95,0.00,,,0.00,weatherlink.com 1.10,2013-02-27 11:12:00,
2013-02-27 06:28:00,36.9,36.0,29.74,SW,231,0.0,1.0,95,0.00,,,0.00,weatherlink.com 1.10,2013-02-27 11:28:00,
2013-02-27 06:43:00,36.0,35.0,29.75,SW,231,0.0,0.0,95,0.00,,,0.00,weatherlink.com 1.10,2013-02-27 11:43:00,
2013-02-27 06:58:00,35.5,34.0,29.75,SW,231,0.0,0.0,95,0.00,,,0.00,weatherlink.com 1.10,2013-02-27 11:58:00,
2013-02-27 07:13:00,35.1,34.0,29.76,SW,231,0.0,0.0,95,0.00,,,0.00,weatherlink.com 1.10,2013-02-27 12:13:00,
2013-02-27 07:28:00,34.5,33.0,29.77,SW,231,0.0,0.0,95,0.00,,,0.00,weatherlink.com 1.10,2013-02-27 12:28:00,
2013-02-27 07:43:00,34.6,34.0,29.78,SW,231,0.0,0.0,97,0.00,,,0.00,weatherlink.com 1.10,2013-02-27 12:43:00,
2013-02-27 07:58:00,35.8,35.0,29.78,SW,231,0.0,2.0,98,0.00,,,0.00,weatherlink.com 1.10,2013-02-27 12:58:00,
2013-02-27 08:13:00,37.5,37.0,29.79,SW,229,1.0,3.0,98,0.00,,,0.00,weatherlink.com 1.10,2013-02-27 13:13:00,
2013-02-27 08:28:00,39.0,38.0,29.80,SW,233,2.0,3.0,96,0.00,,,0.00,weatherlink.com 1.10,2013-02-27 13:28:00,
2013-02-27 08:43:00,40.9,39.0,29.81,WSW,243,3.0,5.0,91,0.00,,,0.00,weatherlink.com 1.10,2013-02-27 13:43:00,
2013-02-27 08:58:00,42.2,39.0,29.81,WSW,242,1.0,5.0,88,0.00,,,0.00,weatherlink.com 1.10,2013-02-27 13:58:00,
2013-02-27 09:13:00,43.1,39.0,29.82,SW,217,2.0,7.0,85,0.00,,,0.00,weatherlink.com 1.10,2013-02-27 14:13:00,
2013-02-27 09:28:00,44.0,39.0,29.82,ESE,113,2.0,4.0,83,0.00,,,0.00,weatherlink.com 1.10,2013-02-27 14:28:00,
2013-02-27 09:43:00,45.2,40.0,29.82,West,269,2.0,6.0,81,0.00,,,0.00,weatherlink.com 1.10,2013-02-27 14:43:00,
2013-02-27 09:58:00,46.0,40.0,29.81,East,98,1.0,6.0,80,0.00,,,0.00,weatherlink.com 1.10,2013-02-27 14:58:00,
2013-02-27 10:13:00,46.9,40.0,29.81,WSW,242,1.0,5.0,77,0.00,,,0.00,weatherlink.com 1.10,2013-02-27 15:13:00,
2013-02-27 10:28:00,47.7,40.0,29.81,SW,234,0.0,4.0,74,0.00,,,0.00,weatherlink.com 1.10,2013-02-27 15:28:00,
2013-02-27 10:43:00,48.5,41.0,29.81,ESE,119,4.0,5.0,74,0.00,,,0.00,weatherlink.com 1.10,2013-02-27 15:43:00,
2013-02-27 10:58:00,49.6,40.0,29.81,West,259,2.0,6.0,70,0.00,,,0.00,weatherlink.com 1.10,2013-02-27 15:58:00,
2013-02-27 11:14:00,50.5,39.0,29.82,NW,317,4.0,6.0,66,0.00,,,0.00,weatherlink.com 1.10,2013-02-27 16:14:00,
2013-02-27 11:28:00,51.4,41.0,29.82,SE,134,3.0,7.0,67,0.00,,,0.00,weatherlink.com 1.10,2013-02-27 16:28:00,
2013-02-27 11:43:00,51.8,40.0,29.81,ESE,120,2.0,7.0,65,0.00,,,0.00,weatherlink.com 1.10,2013-02-27 16:43:00,
2013-02-27 11:58:00,51.7,40.0,29.81,West,275,2.0,6.0,65,0.00,,,0.00,weatherlink.com 1.10,2013-02-27 16:58:00,
2013-02-27 12:14:00,52.4,41.0,29.80,West,281,3.0,5.0,66,0.00,,,0.00,weatherlink.com 1.10,2013-02-27 17:14:00,
2013-02-27 12:29:00,52.3,41.0,29.80,SE,138,2.0,7.0,65,0.00,,,0.00,weatherlink.com 1.10,2013-02-27 17:29:00,
2013-02-27 12:44:00,52.6,39.0,29.80,SW,235,3.0,5.0,61,0.00,,,0.00,weatherlink.com 1.10,2013-02-27 17:44:00,
2013-02-27 12:59:00,53.0,40.0,29.79,South,171,1.0,8.0,61,0.00,,,0.00,weatherlink.com 1.10,2013-02-27 17:59:00,
2013-02-27 13:14:00,53.4,41.0,29.79,West,268,4.0,9.0,64,0.00,,,0.00,weatherlink.com 1.10,2013-02-27 18:14:00,
2013-02-27 13:29:00,54.6,41.0,29.78,East,94,0.0,7.0,60,0.00,,,0.00,weatherlink.com 1.10,2013-02-27 18:29:00,
2013-02-27 13:44:00,54.6,42.0,29.78,North,360,1.0,8.0,62,0.00,,,0.00,weatherlink.com 1.10,2013-02-27 18:44:00,
2013-02-27 13:59:00,55.1,41.0,29.77,WSW,244,3.0,7.0,59,0.00,,,0.00,weatherlink.com 1.10,2013-02-27 18:59:00,
2013-02-27 14:14:00,55.1,42.0,29.77,South,169,1.0,9.0,62,0.00,,,0.00,weatherlink.com 1.10,2013-02-27 19:14:00,
2013-02-27 14:29:00,56.0,42.0,29.77,ESE,112,5.0,7.0,59,0.00,,,0.00,weatherlink.com 1.10,2013-02-27 19:29:00,
2013-02-27 14:44:00,55.9,41.0,29.77,ESE,103,2.0,8.0,58,0.00,,,0.00,weatherlink.com 1.10,2013-02-27 19:44:00,
2013-02-27 14:59:00,55.8,41.0,29.76,SW,233,4.0,6.0,58,0.00,,,0.00,weatherlink.com 1.10,2013-02-27 19:59:00,
2013-02-27 15:14:00,55.4,41.0,29.75,SW,217,2.0,8.0,59,0.00,,,0.00,weatherlink.com 1.10,2013-02-27 20:14:00,
2013-02-27 15:29:00,56.1,41.0,29.75,SE,133,1.0,9.0,58,0.00,,,0.00,weatherlink.com 1.10,2013-02-27 20:29:00,
2013-02-27 15:44:00,56.0,42.0,29.75,NW,315,1.0,9.0,60,0.00,,,0.00,weatherlink.com 1.10,2013-02-27 20:44:00,
2013-02-27 15:59:00,56.5,42.0,29.75,ESE,110,2.0,5.0,59,0.00,,,0.00,weatherlink.com 1.10,2013-02-27 20:59:00,
2013-02-27 16:14:00,56.6,41.0,29.75,SW,226,2.0,8.0,56,0.00,,,0.00,weatherlink.com 1.10,2013-02-27 21:14:00,
2013-02-27 16:29:00,56.4,41.0,29.74,South,188,0.0,6.0,57,0.00,,,0.00,weatherlink.com 1.10,2013-02-27 21:29:00,
2013-02-27 16:44:00,56.6,41.0,29.75,SE,144,8.0,10.0,56,0.00,,,0.00,weatherlink.com 1.10,2013-02-27 21:44:00,
2013-02-27 16:59:00,56.3,41.0,29.75,SE,131,4.0,8.0,57,0.00,,,0.00,weatherlink.com 1.10,2013-02-27 21:59:00,
2013-02-27 17:14:00,55.7,40.0,29.75,ESE,120,3.0,8.0,57,0.00,,,0.00,weatherlink.com 1.10,2013-02-27 22:14:00,
2013-02-27 17:29:00,55.4,40.0,29.74,SSE,155,2.0,6.0,57,0.00,,,0.00,weatherlink.com 1.10,2013-02-27 22:29:00,
2013-02-27 17:44:00,55.0,40.0,29.75,ESE,117,1.0,8.0,58,0.00,,,0.00,weatherlink.com 1.10,2013-02-27 22:44:00,
2013-02-27 17:59:00,53.9,40.0,29.75,SSW,208,2.0,4.0,60,0.00,,,0.00,weatherlink.com 1.10,2013-02-27 22:59:00,
2013-02-27 18:14:00,52.7,40.0,29.75,WSW,255,0.0,5.0,63,0.00,,,0.00,weatherlink.com 1.10,2013-02-27 23:14:00,
2013-02-27 18:44:00,50.7,41.0,29.75,SE,140,0.0,1.0,69,0.00,,,0.00,weatherlink.com 1.10,2013-02-27 23:44:00,
2013-02-27 18:59:00,49.0,41.0,29.75,SE,140,0.0,0.0,73,0.00,,,0.00,weatherlink.com 1.10,2013-02-27 23:59:00,
2013-02-27 19:14:00,47.3,40.0,29.75,SE,140,1.0,1.0,76,0.00,,,0.00,weatherlink.com 1.10,2013-02-28 00:14:00,
2013-02-27 19:29:00,45.8,40.0,29.75,SE,140,0.0,1.0,79,0.00,,,0.00,weatherlink.com 1.10,2013-02-28 00:29:00,
2013-02-27 19:44:00,45.0,39.0,29.76,SE,140,0.0,2.0,80,0.00,,,0.00,weatherlink.com 1.10,2013-02-28 00:44:00,
2013-02-27 19:59:00,45.6,39.0,29.75,SSE,161,0.0,2.0,79,0.00,,,0.00,weatherlink.com 1.10,2013-02-28 00:59:00,
2013-02-27 20:14:00,46.3,39.0,29.75,SSE,159,0.0,2.0,77,0.00,,,0.00,weatherlink.com 1.10,2013-02-28 01:14:00,
2013-02-27 20:29:00,47.0,39.0,29.74,SSE,148,1.0,3.0,74,0.00,,,0.00,weatherlink.com 1.10,2013-02-28 01:29:00,
2013-02-27 20:44:00,47.3,39.0,29.75,SE,126,1.0,2.0,73,0.00,,,0.00,weatherlink.com 1.10,2013-02-28 01:44:00,
2013-02-27 20:59:00,47.4,38.0,29.74,SE,125,1.0,6.0,70,0.00,,,0.00,weatherlink.com 1.10,2013-02-28 01:59:00,
2013-02-27 21:14:00,48.0,37.0,29.74,WNW,303,1.0,3.0,67,0.00,,,0.00,weatherlink.com 1.10,2013-02-28 02:14:00,
2013-02-27 21:29:00,48.3,37.0,29.75,SW,232,1.0,6.0,66,0.00,,,0.00,weatherlink.com 1.10,2013-02-28 02:29:00,
2013-02-27 21:44:00,48.8,37.0,29.75,NW,319,0.0,6.0,64,0.00,,,0.00,weatherlink.com 1.10,2013-02-28 02:44:00,
2013-02-27 21:59:00,48.7,37.0,29.75,SSE,162,2.0,7.0,64,0.00,,,0.00,weatherlink.com 1.10,2013-02-28 02:59:00,
2013-02-27 22:14:00,48.6,37.0,29.75,South,173,2.0,5.0,64,0.00,,,0.00,weatherlink.com 1.10,2013-02-28 03:14:00,
2013-02-27 22:29:00,48.6,36.0,29.74,SW,235,3.0,7.0,63,0.00,,,0.00,weatherlink.com 1.10,2013-02-28 03:29:00,
2013-02-27 22:44:00,48.5,36.0,29.74,WNW,290,1.0,8.0,63,0.00,,,0.00,weatherlink.com 1.10,2013-02-28 03:44:00,
2013-02-27 23:29:00,48.9,36.0,29.74,WNW,291,1.0,5.0,61,0.00,,,0.00,weatherlink.com 1.10,2013-02-28 04:29:00,
2013-02-27 23:44:00,48.8,36.0,29.73,SSW,205,1.0,8.0,61,0.00,,,0.00,weatherlink.com 1.10,2013-02-28 04:44:00,
2013-02-27 23:59:00,48.5,35.0,29.74,SE,130,1.0,9.0,61,0.00,,,0.00,weatherlink.com 1.10,2013-02-28 04:59:00,